Time;durP1;ratioP1;P1;durP2;ratioP2;P2;SDS_P1;SDS_P2;PMS_P1;PMS_P2;Temp;Humidity;BMP_temperature;BMP_pressure;BME280_temperature;BME280_humidity;BME280_pressure;Samples;Min_cycle;Max_cycle;Signal;HPM_P1;HPM_P2
2021/08/01 00:00:48;;;;;;;0.43;0.20;;;19.60;99.90;;;;;;5071366;28;20197;-82
2021/08/01 00:03:14;;;;;;;0.20;0.20;;;19.60;99.90;;;;;;5054047;28;20204;-82
2021/08/01 00:05:41;;;;;;;0.27;0.27;;;19.70;99.90;;;;;;5067357;28;20186;-83
2021/08/01 00:08:07;;;;;;;0.10;0.10;;;19.60;99.90;;;;;;5047202;28;20181;-82
2021/08/01 00:10:32;;;;;;;0.20;0.20;;;19.60;99.90;;;;;;5048237;28;20220;-83
2021/08/01 00:12:58;;;;;;;0.30;0.30;;;19.60;99.90;;;;;;5051885;28;20209;-83
2021/08/01 00:15:24;;;;;;;0.17;0.17;;;19.60;99.90;;;;;;5052442;28;20196;-83
2021/08/01 00:17:49;;;;;;;0.67;0.53;;;19.60;99.90;;;;;;5055012;28;20204;-83
2021/08/01 00:20:16;;;;;;;4.43;0.50;;;19.60;99.90;;;;;;5050300;28;20177;-82
2021/08/01 00:22:41;;;;;;;0.20;0.20;;;19.60;99.90;;;;;;5069025;28;20838;-83
2021/08/01 00:25:08;;;;;;;0.13;0.13;;;19.60;99.90;;;;;;5053069;28;20218;-83
2021/08/01 00:27:35;;;;;;;0.20;0.20;;;19.40;99.90;;;;;;5050696;28;20681;-82
2021/08/01 00:30:02;;;;;;;0.30;0.30;;;19.30;99.90;;;;;;5050202;28;20612;-82
2021/08/01 00:32:28;;;;;;;0.20;0.20;;;19.20;99.90;;;;;;5057232;28;20223;-84
2021/08/01 00:34:53;;;;;;;0.20;0.20;;;19.10;99.90;;;;;;5054698;28;20271;-85
2021/08/01 00:37:19;;;;;;;0.77;0.30;;;18.80;99.90;;;;;;5052800;28;20195;-82
2021/08/01 00:39:45;;;;;;;0.30;0.30;;;18.50;99.90;;;;;;5068971;28;20185;-81
2021/08/01 00:42:10;;;;;;;0.20;0.20;;;18.40;99.90;;;;;;5053686;28;20213;-81
2021/08/01 00:44:36;;;;;;;0.20;0.20;;;18.30;99.90;;;;;;5054093;28;20882;-82
2021/08/01 00:47:02;;;;;;;0.40;0.40;;;18.40;99.90;;;;;;5073044;28;20216;-82
2021/08/01 00:49:28;;;;;;;0.20;0.20;;;18.50;99.90;;;;;;5073317;28;20181;-81
2021/08/01 00:51:55;;;;;;;0.30;0.30;;;18.50;99.90;;;;;;5071609;28;20696;-81
2021/08/01 00:54:23;;;;;;;0.20;0.20;;;18.70;99.90;;;;;;5047311;28;20200;-81
2021/08/01 00:56:49;;;;;;;1.13;0.20;;;18.70;99.90;;;;;;5052699;28;20206;-81
2021/08/01 00:59:15;;;;;;;0.20;0.20;;;18.90;99.90;;;;;;5067800;28;20177;-81
2021/08/01 01:01:57;;;;;;;0.20;0.20;;;18.90;99.90;;;;;;5054262;28;20208;-82
2021/08/01 01:04:50;;;;;;;0.23;0.23;;;19.00;99.90;;;;;;5047441;28;20189;-82
2021/08/01 01:07:25;;;;;;;0.27;0.27;;;19.10;99.90;;;;;;5066025;28;20184;-81
2021/08/01 01:10:04;;;;;;;1.20;0.27;;;19.10;99.90;;;;;;5053597;28;20229;-81
2021/08/01 01:12:44;;;;;;;0.43;0.30;;;19.00;99.90;;;;;;5055516;28;20213;-82
2021/08/01 01:15:17;;;;;;;0.30;0.30;;;19.10;99.90;;;;;;5053484;28;20178;-80
2021/08/01 01:17:46;;;;;;;0.10;0.10;;;19.10;99.90;;;;;;5051396;28;20288;-82
2021/08/01 01:20:30;;;;;;;0.20;0.20;;;19.10;99.90;;;;;;5072725;28;20624;-80
2021/08/01 01:23:20;;;;;;;0.20;0.20;;;19.10;99.90;;;;;;5051478;28;20201;-81
2021/08/01 01:26:04;;;;;;;0.20;0.20;;;19.10;99.90;;;;;;5054446;28;20195;-81
2021/08/01 01:28:51;;;;;;;0.33;0.33;;;19.10;99.90;;;;;;5052994;28;20199;-82
2021/08/01 01:31:24;;;;;;;0.40;0.40;;;19.10;99.90;;;;;;5052038;28;20207;-81
2021/08/01 01:34:08;;;;;;;0.47;0.47;;;19.00;99.90;;;;;;5054083;28;20665;-82
2021/08/01 01:36:35;;;;;;;0.10;0.10;;;18.80;99.90;;;;;;5053894;28;20234;-80
2021/08/01 01:39:04;;;;;;;0.20;0.20;;;18.90;99.90;;;;;;5053180;28;20185;-81
2021/08/01 01:41:30;;;;;;;0.20;0.20;;;18.80;99.90;;;;;;5066367;28;20282;-81
2021/08/01 01:43:56;;;;;;;0.30;0.30;;;18.90;99.90;;;;;;5058442;28;20188;-82
2021/08/01 01:46:24;;;;;;;0.10;0.10;;;18.80;99.90;;;;;;5077558;28;20185;-81
2021/08/01 01:48:50;;;;;;;0.60;0.60;;;18.80;99.90;;;;;;5075690;28;20178;-81
2021/08/01 01:51:17;;;;;;;0.23;0.23;;;18.80;99.90;;;;;;5052491;28;20220;-82
2021/08/01 01:53:43;;;;;;;0.30;0.30;;;18.80;99.90;;;;;;5076116;28;20522;-82
2021/08/01 01:56:10;;;;;;;1.50;0.60;;;18.90;99.90;;;;;;5073708;28;20714;-82
2021/08/01 01:58:37;;;;;;;0.50;0.30;;;18.90;99.90;;;;;;5057813;28;20182;-82
2021/08/01 02:01:02;;;;;;;0.13;0.13;;;19.00;99.90;;;;;;5058359;28;20704;-81
2021/08/01 02:03:28;;;;;;;0.30;0.30;;;18.90;99.90;;;;;;5055326;28;20228;-82
2021/08/01 02:05:54;;;;;;;0.83;0.40;;;18.90;99.90;;;;;;5062113;28;20189;-83
2021/08/01 02:08:20;;;;;;;0.50;0.50;;;18.90;99.90;;;;;;5050311;28;20181;-83
2021/08/01 02:11:06;;;;;;;0.33;0.23;;;18.90;99.90;;;;;;5061349;28;20178;-82
2021/08/01 02:13:52;;;;;;;0.10;0.10;;;18.80;99.90;;;;;;5054270;28;20221;-81
2021/08/01 02:16:19;;;;;;;0.37;0.37;;;18.80;99.90;;;;;;5052212;28;20213;-82
2021/08/01 02:18:51;;;;;;;0.13;0.13;;;18.80;99.90;;;;;;5055279;28;20207;-81
2021/08/01 02:21:19;;;;;;;0.20;0.20;;;18.90;99.90;;;;;;5055191;28;20189;-82
2021/08/01 02:23:46;;;;;;;0.23;0.23;;;18.90;99.90;;;;;;5051741;28;20261;-80
2021/08/01 02:26:15;;;;;;;0.30;0.30;;;18.90;99.90;;;;;;5053427;28;20646;-83
2021/08/01 02:28:43;;;;;;;0.10;0.10;;;18.90;99.90;;;;;;5051340;28;20194;-81
2021/08/01 02:31:09;;;;;;;0.30;0.30;;;18.90;99.90;;;;;;5051565;28;20228;-82
2021/08/01 02:33:36;;;;;;;0.10;0.10;;;18.90;99.90;;;;;;5072286;28;20256;-83
2021/08/01 02:36:05;;;;;;;0.20;0.20;;;19.00;99.90;;;;;;5054203;28;20207;-82
2021/08/01 02:38:32;;;;;;;0.20;0.20;;;19.00;99.90;;;;;;5071906;28;20208;-83
2021/08/01 02:41:04;;;;;;;0.30;0.30;;;19.00;99.90;;;;;;5072343;28;20192;-83
2021/08/01 02:43:31;;;;;;;0.50;0.20;;;19.00;99.90;;;;;;5054221;28;20327;-81
2021/08/01 02:45:57;;;;;;;0.20;0.20;;;19.00;99.90;;;;;;5054839;28;20603;-83
2021/08/01 02:48:25;;;;;;;0.37;0.37;;;19.00;99.90;;;;;;5070378;28;20205;-83
2021/08/01 02:51:00;;;;;;;0.10;0.10;;;19.00;99.90;;;;;;5054578;28;20179;-83
2021/08/01 02:53:28;;;;;;;0.40;0.40;;;19.00;99.90;;;;;;5072317;28;20200;-83
2021/08/01 02:55:57;;;;;;;0.20;0.20;;;19.00;99.90;;;;;;5052048;28;20216;-83
2021/08/01 02:58:24;;;;;;;0.30;0.30;;;19.00;99.90;;;;;;5069718;28;20180;-82
2021/08/01 03:00:51;;;;;;;0.30;0.30;;;18.90;99.90;;;;;;5072303;28;20177;-82
2021/08/01 03:03:19;;;;;;;0.50;0.50;;;18.90;99.90;;;;;;5051095;28;20204;-83
2021/08/01 03:05:45;;;;;;;0.20;0.20;;;18.80;99.90;;;;;;5070225;28;20181;-82
2021/08/01 03:08:13;;;;;;;0.10;0.10;;;18.80;99.90;;;;;;5054156;28;20184;-83
2021/08/01 03:10:46;;;;;;;0.93;0.30;;;18.60;99.90;;;;;;5071858;28;20177;-83
2021/08/01 03:13:12;;;;;;;0.30;0.30;;;18.70;99.90;;;;;;5069780;28;20204;-83
2021/08/01 03:15:38;;;;;;;0.20;0.20;;;18.80;99.90;;;;;;5054448;28;20356;-83
2021/08/01 03:18:04;;;;;;;0.30;0.30;;;18.80;99.90;;;;;;5070726;28;20256;-83
2021/08/01 03:20:29;;;;;;;0.20;0.20;;;18.80;99.90;;;;;;5050448;28;20208;-82
2021/08/01 03:22:55;;;;;;;0.23;0.23;;;18.60;99.90;;;;;;5047409;28;20673;-82
2021/08/01 03:25:20;;;;;;;0.27;0.27;;;18.60;99.90;;;;;;5069917;28;20181;-83
2021/08/01 03:27:46;;;;;;;0.20;0.20;;;18.40;99.90;;;;;;5072017;28;20192;-83
2021/08/01 03:30:12;;;;;;;0.50;0.40;;;18.40;99.90;;;;;;5071489;28;20184;-83
2021/08/01 03:32:37;;;;;;;0.10;0.10;;;18.30;99.90;;;;;;5052384;28;20209;-83
2021/08/01 03:35:03;;;;;;;0.10;0.10;;;18.30;99.90;;;;;;5069694;28;20188;-82
2021/08/01 03:37:29;;;;;;;0.30;0.30;;;18.40;99.90;;;;;;5051946;28;20231;-82
2021/08/01 03:39:55;;;;;;;0.20;0.20;;;18.40;99.90;;;;;;5070331;28;20184;-83
2021/08/01 03:42:20;;;;;;;0.10;0.10;;;18.50;99.90;;;;;;5059794;28;20201;-83
2021/08/01 03:44:46;;;;;;;0.37;0.37;;;18.50;99.90;;;;;;5068919;28;20188;-82
2021/08/01 03:47:12;;;;;;;0.20;0.20;;;18.50;99.90;;;;;;5053279;28;20189;-82
2021/08/01 03:49:37;;;;;;;0.20;0.20;;;18.50;99.90;;;;;;5053077;28;20188;-83
2021/08/01 03:52:04;;;;;;;0.30;0.30;;;18.40;99.90;;;;;;5055071;28;20254;-82
2021/08/01 03:54:29;;;;;;;0.30;0.30;;;18.30;99.90;;;;;;5056174;28;20189;-81
2021/08/01 03:56:55;;;;;;;0.40;0.40;;;18.30;99.90;;;;;;5052231;28;20223;-83
2021/08/01 03:59:20;;;;;;;0.10;0.10;;;18.30;99.90;;;;;;5053108;28;20674;-82
2021/08/01 04:01:46;;;;;;;0.70;0.47;;;18.40;99.90;;;;;;5052359;28;20637;-83
2021/08/01 04:04:11;;;;;;;0.10;0.10;;;18.30;99.90;;;;;;5050909;28;21517;-83
2021/08/01 04:06:37;;;;;;;0.10;0.10;;;18.30;99.90;;;;;;5062473;28;20264;-83
2021/08/01 04:09:06;;;;;;;0.10;0.10;;;18.30;99.90;;;;;;5070156;28;20212;-83
2021/08/01 04:11:33;;;;;;;0.20;0.20;;;18.30;99.90;;;;;;5049099;28;20250;-84
2021/08/01 04:13:59;;;;;;;0.20;0.20;;;18.30;99.90;;;;;;5051450;28;20181;-82
2021/08/01 04:16:24;;;;;;;0.23;0.23;;;18.30;99.90;;;;;;5082025;28;20184;-81
2021/08/01 04:18:50;;;;;;;0.20;0.20;;;18.30;99.90;;;;;;5055299;28;20213;-81
2021/08/01 04:21:15;;;;;;;0.37;0.37;;;18.20;99.90;;;;;;5062219;28;20570;-82
2021/08/01 04:23:41;;;;;;;0.30;0.30;;;18.30;99.90;;;;;;5054798;28;20192;-82
2021/08/01 04:26:08;;;;;;;0.10;0.10;;;18.00;99.90;;;;;;5055158;28;20772;-82
2021/08/01 04:28:35;;;;;;;0.17;0.17;;;18.00;99.90;;;;;;5071402;28;20192;-80
2021/08/01 04:31:01;;;;;;;0.30;0.30;;;18.00;99.90;;;;;;5078277;28;20196;-82
2021/08/01 04:33:27;;;;;;;0.50;0.50;;;18.10;99.90;;;;;;5061850;28;20217;-81
2021/08/01 04:35:52;;;;;;;0.23;0.23;;;18.20;99.90;;;;;;5058200;28;20211;-80
2021/08/01 04:38:18;;;;;;;0.20;0.20;;;18.20;99.90;;;;;;5056863;28;20185;-82
2021/08/01 04:40:44;;;;;;;0.60;0.60;;;18.30;99.90;;;;;;5052939;28;20860;-82
2021/08/01 04:43:09;;;;;;;0.20;0.20;;;18.30;99.90;;;;;;5058973;28;20262;-81
2021/08/01 04:45:35;;;;;;;0.30;0.30;;;18.40;99.90;;;;;;5072853;28;20203;-81
2021/08/01 04:48:00;;;;;;;0.10;0.10;;;18.40;99.90;;;;;;5055023;28;20189;-82
2021/08/01 04:50:26;;;;;;;0.20;0.20;;;18.40;99.90;;;;;;5053351;28;20241;-81
2021/08/01 04:52:52;;;;;;;0.37;0.37;;;18.30;99.90;;;;;;5058130;28;20654;-82
2021/08/01 04:55:19;;;;;;;0.20;0.20;;;18.40;99.90;;;;;;5070208;28;20184;-82
2021/08/01 04:57:45;;;;;;;0.30;0.30;;;18.40;99.90;;;;;;5056907;28;20185;-81
2021/08/01 05:00:11;;;;;;;0.20;0.20;;;18.40;99.90;;;;;;5053527;28;20196;-82
2021/08/01 05:02:37;;;;;;;0.30;0.30;;;18.40;99.90;;;;;;5054761;28;20213;-81
2021/08/01 05:05:04;;;;;;;0.33;0.30;;;18.40;99.90;;;;;;5057200;28;20185;-82
2021/08/01 05:07:30;;;;;;;0.20;0.20;;;17.90;99.90;;;;;;5076184;28;20242;-80
2021/08/01 05:09:56;;;;;;;0.27;0.27;;;17.60;99.90;;;;;;5056933;28;20322;-81
2021/08/01 05:12:21;;;;;;;0.60;0.30;;;17.40;99.90;;;;;;5055578;28;20245;-81
2021/08/01 05:14:47;;;;;;;0.10;0.10;;;17.40;99.90;;;;;;5055700;28;20200;-81
2021/08/01 05:17:13;;;;;;;0.40;0.40;;;17.40;99.90;;;;;;5055019;28;20188;-81
2021/08/01 05:19:42;;;;;;;0.20;0.20;;;17.40;99.90;;;;;;5056704;28;20279;-82
2021/08/01 05:22:08;;;;;;;0.47;0.20;;;17.30;99.90;;;;;;5076390;28;20201;-81
2021/08/01 05:24:41;;;;;;;0.20;0.20;;;17.40;99.90;;;;;;5057994;28;20181;-82
2021/08/01 05:27:07;;;;;;;0.50;0.40;;;17.40;99.90;;;;;;5057952;28;20191;-81
2021/08/01 05:29:33;;;;;;;0.20;0.20;;;17.70;99.90;;;;;;5056429;28;20187;-82
2021/08/01 05:31:59;;;;;;;0.20;0.20;;;17.90;99.90;;;;;;5077054;28;20739;-82
2021/08/01 05:34:24;;;;;;;0.30;0.30;;;18.10;99.90;;;;;;5051232;28;20181;-82
2021/08/01 05:36:50;;;;;;;0.10;0.10;;;18.30;99.90;;;;;;5060460;28;20189;-81
2021/08/01 05:39:16;;;;;;;0.20;0.20;;;18.50;99.90;;;;;;5059682;28;20181;-80
2021/08/01 05:41:42;;;;;;;0.30;0.30;;;18.70;99.90;;;;;;5059205;28;20255;-82
2021/08/01 05:44:08;;;;;;;0.50;0.30;;;18.70;99.90;;;;;;5056822;28;20692;-82
2021/08/01 05:46:33;;;;;;;1.17;0.60;;;18.90;99.90;;;;;;5057457;28;20192;-82
2021/08/01 05:48:59;;;;;;;0.47;0.47;;;18.90;99.90;;;;;;5057183;28;20272;-82
2021/08/01 05:51:25;;;;;;;0.13;0.13;;;19.00;99.90;;;;;;5054843;28;20201;-81
2021/08/01 05:53:50;;;;;;;0.20;0.20;;;19.00;99.90;;;;;;5062825;28;20188;-82
2021/08/01 05:56:16;;;;;;;0.37;0.37;;;19.10;99.90;;;;;;5056315;28;20209;-81
2021/08/01 05:58:42;;;;;;;0.17;0.17;;;19.10;99.90;;;;;;5073998;28;20603;-82
2021/08/01 06:01:13;;;;;;;0.23;0.23;;;19.20;99.90;;;;;;5058010;28;20181;-82
2021/08/01 06:03:39;;;;;;;0.13;0.13;;;19.30;99.90;;;;;;5073666;28;20206;-81
2021/08/01 06:06:16;;;;;;;0.27;0.20;;;19.40;99.90;;;;;;5075144;28;20184;-80
2021/08/01 06:08:43;;;;;;;0.30;0.30;;;19.50;99.90;;;;;;5075261;28;20261;-81
2021/08/01 06:11:10;;;;;;;0.30;0.30;;;19.50;99.90;;;;;;5056222;28;20187;-80
2021/08/01 06:13:36;;;;;;;0.40;0.40;;;19.50;99.90;;;;;;5072684;28;20220;-82
2021/08/01 06:16:02;;;;;;;0.30;0.30;;;19.40;99.90;;;;;;5056535;28;20181;-82
2021/08/01 06:18:28;;;;;;;0.30;0.30;;;19.40;99.90;;;;;;5074713;28;20230;-81
2021/08/01 06:21:05;;;;;;;0.30;0.30;;;19.30;99.90;;;;;;5055764;28;20726;-81
2021/08/01 06:23:31;;;;;;;1.07;0.30;;;19.20;99.90;;;;;;5076676;28;20208;-82
2021/08/01 06:25:57;;;;;;;0.30;0.30;;;19.10;99.90;;;;;;5062149;28;20177;-82
2021/08/01 06:28:22;;;;;;;0.30;0.30;;;19.00;99.90;;;;;;5075052;28;20196;-81
2021/08/01 06:30:48;;;;;;;0.43;0.43;;;19.00;99.90;;;;;;5074714;28;20178;-80
2021/08/01 06:33:13;;;;;;;0.50;0.50;;;19.00;99.90;;;;;;5057756;28;20596;-81
2021/08/01 06:35:39;;;;;;;0.37;0.37;;;19.00;99.90;;;;;;5058087;28;20771;-82
2021/08/01 06:38:04;;;;;;;0.20;0.20;;;19.00;99.90;;;;;;5073832;28;20204;-85
2021/08/01 06:40:30;;;;;;;0.30;0.30;;;19.00;99.90;;;;;;5054629;28;20264;-84
2021/08/01 06:42:55;;;;;;;0.63;0.63;;;19.00;99.90;;;;;;5053585;28;20680;-85
2021/08/01 06:45:21;;;;;;;0.40;0.30;;;19.10;99.90;;;;;;5054772;28;20264;-84
2021/08/01 06:47:46;;;;;;;0.20;0.20;;;19.30;99.90;;;;;;5053905;28;20177;-82
2021/08/01 06:50:12;;;;;;;0.30;0.30;;;19.40;99.90;;;;;;5057177;28;20235;-80
2021/08/01 06:52:38;;;;;;;0.30;0.30;;;19.50;99.90;;;;;;5072800;28;20212;-85
2021/08/01 06:55:04;;;;;;;0.30;0.30;;;19.70;99.90;;;;;;5070063;28;20173;-85
2021/08/01 06:57:30;;;;;;;0.20;0.10;;;19.80;99.90;;;;;;5053447;28;20181;-84
2021/08/01 06:59:55;;;;;;;0.53;0.50;;;20.00;99.90;;;;;;5053623;28;20177;-83
2021/08/01 07:02:21;;;;;;;0.87;0.87;;;20.20;99.90;;;;;;5068992;28;20698;-83
2021/08/01 07:04:46;;;;;;;0.77;0.60;;;20.30;99.90;;;;;;5052801;28;20784;-82
2021/08/01 07:07:12;;;;;;;0.47;0.47;;;20.30;99.90;;;;;;5070626;28;20205;-82
2021/08/01 07:09:40;;;;;;;0.30;0.30;;;20.40;99.90;;;;;;5055071;28;20234;-82
2021/08/01 07:12:09;;;;;;;0.50;0.50;;;20.50;99.90;;;;;;5054832;28;20204;-82
2021/08/01 07:14:35;;;;;;;0.40;0.40;;;20.50;99.90;;;;;;5052444;28;20181;-82
2021/08/01 07:17:01;;;;;;;0.40;0.40;;;20.40;99.90;;;;;;5054021;28;20238;-83
2021/08/01 07:19:27;;;;;;;0.20;0.20;;;20.60;99.90;;;;;;5061139;28;20576;-81
2021/08/01 07:21:53;;;;;;;0.63;0.37;;;20.80;99.90;;;;;;5060378;28;20308;-82
2021/08/01 07:24:19;;;;;;;0.20;0.20;;;21.10;99.90;;;;;;5058959;28;20251;-80
2021/08/01 07:26:47;;;;;;;0.63;0.37;;;21.20;99.90;;;;;;5059816;28;20238;-82
2021/08/01 07:29:14;;;;;;;0.20;0.20;;;21.20;99.90;;;;;;5067588;28;20185;-82
2021/08/01 07:31:39;;;;;;;1.10;0.60;;;21.30;99.90;;;;;;5053032;28;20246;-82
2021/08/01 07:34:05;;;;;;;0.40;0.40;;;21.10;99.90;;;;;;5048624;28;20271;-82
2021/08/01 07:36:31;;;;;;;0.23;0.23;;;21.00;99.90;;;;;;5050811;28;20621;-81
2021/08/01 07:38:56;;;;;;;0.40;0.40;;;21.20;99.90;;;;;;5048519;28;20611;-83
2021/08/01 07:41:22;;;;;;;0.30;0.30;;;21.00;99.90;;;;;;5050481;28;20194;-83
2021/08/01 07:43:50;;;;;;;0.30;0.30;;;21.20;99.90;;;;;;5053614;28;20199;-81
2021/08/01 07:46:20;;;;;;;0.50;0.20;;;20.90;99.90;;;;;;5066307;28;20575;-82
2021/08/01 07:48:46;;;;;;;0.20;0.20;;;20.70;99.90;;;;;;5059474;28;20279;-81
2021/08/01 07:51:12;;;;;;;0.43;0.43;;;20.90;99.90;;;;;;5060989;28;20877;-80
2021/08/01 07:53:37;;;;;;;0.33;0.33;;;20.90;99.90;;;;;;5056956;28;20288;-82
2021/08/01 07:56:03;;;;;;;0.30;0.30;;;20.40;99.90;;;;;;5072335;28;20181;-80
2021/08/01 07:58:32;;;;;;;0.67;0.30;;;20.70;99.90;;;;;;5054073;28;20249;-82
2021/08/01 08:00:58;;;;;;;0.53;0.30;;;21.10;99.90;;;;;;5052159;28;20246;-82
2021/08/01 08:03:23;;;;;;;0.20;0.20;;;21.30;99.90;;;;;;5048041;28;20716;-81
2021/08/01 08:05:49;;;;;;;0.30;0.30;;;21.10;99.90;;;;;;5054405;28;20188;-82
2021/08/01 08:08:15;;;;;;;0.27;0.23;;;21.50;99.90;;;;;;5072016;28;20173;-82
2021/08/01 08:10:40;;;;;;;0.43;0.43;;;21.70;99.90;;;;;;5054358;28;20235;-82
2021/08/01 08:13:06;;;;;;;0.77;0.43;;;22.30;99.90;;;;;;5059053;28;20240;-81
2021/08/01 08:15:32;;;;;;;0.20;0.20;;;22.60;99.90;;;;;;5077965;28;20196;-81
2021/08/01 08:17:58;;;;;;;0.27;0.27;;;23.00;99.90;;;;;;5073883;28;20669;-81
2021/08/01 08:20:24;;;;;;;0.40;0.30;;;23.30;99.90;;;;;;5053356;28;20236;-80
2021/08/01 08:22:49;;;;;;;0.20;0.20;;;23.20;99.90;;;;;;5073987;28;20208;-81
2021/08/01 08:25:15;;;;;;;0.87;0.40;;;23.70;99.90;;;;;;5057540;28;20173;-80
2021/08/01 08:27:40;;;;;;;0.20;0.20;;;23.60;99.90;;;;;;5056926;28;20197;-80
2021/08/01 08:30:07;;;;;;;0.30;0.30;;;23.60;99.90;;;;;;5076661;28;20201;-81
2021/08/01 08:32:34;;;;;;;0.53;0.53;;;23.50;99.90;;;;;;5060501;28;20216;-81
2021/08/01 08:35:00;;;;;;;1.00;0.40;;;23.50;99.90;;;;;;5056928;28;20185;-81
2021/08/01 08:37:26;;;;;;;0.30;0.30;;;23.50;99.90;;;;;;5056356;28;20181;-80
2021/08/01 08:39:52;;;;;;;0.30;0.30;;;23.50;99.90;;;;;;5068399;28;20195;-82
2021/08/01 08:42:18;;;;;;;0.17;0.17;;;23.30;99.90;;;;;;5053247;28;20874;-82
2021/08/01 08:44:44;;;;;;;0.20;0.20;;;23.40;99.90;;;;;;5070474;28;20555;-81
2021/08/01 08:47:17;;;;;;;0.17;0.17;;;23.50;99.90;;;;;;5053421;28;20191;-81
2021/08/01 08:49:47;;;;;;;0.20;0.20;;;23.50;99.90;;;;;;5070544;28;20189;-83
2021/08/01 08:52:13;;;;;;;0.40;0.40;;;23.60;99.90;;;;;;5055392;28;20220;-81
2021/08/01 08:54:43;;;;;;;0.30;0.30;;;23.60;99.90;;;;;;5052227;28;20185;-81
2021/08/01 08:57:19;;;;;;;0.50;0.50;;;23.70;99.90;;;;;;5067781;28;20181;-84
2021/08/01 08:59:45;;;;;;;0.30;0.30;;;23.70;99.90;;;;;;5068284;28;20546;-85
2021/08/01 09:02:13;;;;;;;3.30;0.30;;;23.70;99.90;;;;;;5068360;28;20213;-82
2021/08/01 09:04:44;;;;;;;0.50;0.50;;;23.60;99.90;;;;;;5052141;28;20185;-81
2021/08/01 09:07:09;;;;;;;5.00;0.40;;;23.60;99.90;;;;;;5052104;28;20193;-82
2021/08/01 09:09:35;;;;;;;0.40;0.40;;;23.70;99.90;;;;;;5053384;28;20181;-81
2021/08/01 09:12:00;;;;;;;0.50;0.43;;;23.50;99.90;;;;;;5065450;28;20243;-83
2021/08/01 09:14:26;;;;;;;0.40;0.40;;;23.50;99.90;;;;;;5069159;28;20188;-82
2021/08/01 09:16:52;;;;;;;0.30;0.30;;;23.50;99.90;;;;;;5048763;28;20600;-82
2021/08/01 09:19:26;;;;;;;0.20;0.20;;;23.50;99.90;;;;;;5052227;28;20177;-82
2021/08/01 09:21:52;;;;;;;0.30;0.30;;;23.50;99.90;;;;;;5069636;28;20644;-82
2021/08/01 09:24:18;;;;;;;0.37;0.30;;;23.50;99.90;;;;;;5069081;28;20181;-82
2021/08/01 09:26:50;;;;;;;0.43;0.43;;;23.60;99.90;;;;;;5059416;28;20238;-82
2021/08/01 09:29:16;;;;;;;0.53;0.40;;;23.50;99.90;;;;;;5051974;28;20181;-82
2021/08/01 09:31:42;;;;;;;0.20;0.20;;;23.60;99.90;;;;;;5068701;28;20235;-81
2021/08/01 09:34:22;;;;;;;0.20;0.20;;;23.70;99.90;;;;;;5068847;28;20550;-82
2021/08/01 09:36:59;;;;;;;0.30;0.30;;;24.00;99.90;;;;;;5053428;28;20672;-82
2021/08/01 09:39:26;;;;;;;0.43;0.40;;;24.30;99.90;;;;;;5070486;28;20173;-82
2021/08/01 09:42:00;;;;;;;0.20;0.20;;;24.70;99.90;;;;;;5058625;28;20224;-80
2021/08/01 09:44:25;;;;;;;0.20;0.20;;;25.00;99.90;;;;;;5050383;28;20185;-82
2021/08/01 09:46:55;;;;;;;0.20;0.20;;;25.20;99.90;;;;;;5052559;28;20303;-82
2021/08/01 09:49:22;;;;;;;0.40;0.40;;;25.40;99.90;;;;;;5069164;28;20278;-82
2021/08/01 09:51:48;;;;;;;0.40;0.40;;;25.40;99.90;;;;;;5068406;28;20689;-82
2021/08/01 09:54:15;;;;;;;0.20;0.20;;;25.50;99.90;;;;;;5069082;28;20185;-83
2021/08/01 09:57:00;;;;;;;0.30;0.30;;;25.70;99.90;;;;;;5069283;28;20180;-82
2021/08/01 09:59:31;;;;;;;0.70;0.40;;;25.60;99.90;;;;;;5051858;28;20185;-83
2021/08/01 10:01:58;;;;;;;0.20;0.20;;;25.40;99.90;;;;;;5052082;28;20215;-82
2021/08/01 10:04:25;;;;;;;0.20;0.20;;;25.60;99.90;;;;;;5052981;28;20184;-82
2021/08/01 10:07:01;;;;;;;0.70;0.40;;;25.50;99.90;;;;;;5074362;28;20259;-82
2021/08/01 10:09:27;;;;;;;0.50;0.40;;;25.40;99.90;;;;;;5054804;28;20234;-82
2021/08/01 10:11:53;;;;;;;0.77;0.57;;;25.30;99.90;;;;;;5055666;28;20216;-82
2021/08/01 10:14:19;;;;;;;0.40;0.40;;;25.30;99.90;;;;;;5053902;28;20196;-83
2021/08/01 10:16:45;;;;;;;0.30;0.30;;;25.30;99.90;;;;;;5074022;28;20176;-83
2021/08/01 10:19:10;;;;;;;0.40;0.40;;;25.40;99.90;;;;;;5055450;28;20184;-81
2021/08/01 10:21:37;;;;;;;0.50;0.50;;;25.50;99.90;;;;;;5072542;28;20243;-83
2021/08/01 10:24:05;;;;;;;0.23;0.23;;;25.60;99.90;;;;;;5054755;28;20189;-82
2021/08/01 10:26:35;;;;;;;0.27;0.27;;;25.90;99.90;;;;;;5054620;28;20185;-82
2021/08/01 10:29:05;;;;;;;0.30;0.30;;;26.00;99.90;;;;;;5054886;28;20181;-82
2021/08/01 10:31:34;;;;;;;0.30;0.30;;;25.60;99.90;;;;;;5070976;28;20204;-83
2021/08/01 10:34:35;;;;;;;0.60;0.60;;;25.30;99.90;;;;;;5050824;28;20990;-82
2021/08/01 10:37:06;;;;;;;0.27;0.27;;;25.40;99.90;;;;;;5054305;28;20200;-82
2021/08/01 10:39:35;;;;;;;0.40;0.40;;;25.70;99.90;;;;;;5073392;28;20180;-82
2021/08/01 10:42:06;;;;;;;0.30;0.30;;;25.80;99.90;;;;;;5079123;28;20230;-83
2021/08/01 10:44:34;;;;;;;0.40;0.40;;;26.10;99.90;;;;;;5056221;28;20283;-82
2021/08/01 10:47:03;;;;;;;0.57;0.57;;;26.30;99.90;;;;;;5053869;28;20185;-82
2021/08/01 10:49:28;;;;;;;0.30;0.30;;;26.10;99.90;;;;;;5052322;28;20629;-82
2021/08/01 10:51:54;;;;;;;0.50;0.40;;;25.70;99.90;;;;;;5055555;28;20243;-82
2021/08/01 10:54:20;;;;;;;0.87;0.87;;;25.60;99.90;;;;;;5070934;28;20208;-82
2021/08/01 10:56:46;;;;;;;0.40;0.40;;;25.10;99.90;;;;;;5070071;28;20653;-82
2021/08/01 10:59:46;;;;;;;0.30;0.30;;;25.10;99.90;;;;;;5053308;28;20177;-83
2021/08/01 11:02:14;;;;;;;0.30;0.30;;;25.20;99.90;;;;;;5052190;28;20204;-83
2021/08/01 11:04:43;;;;;;;1.00;0.40;;;25.10;99.90;;;;;;5056686;28;20669;-83
2021/08/01 11:07:09;;;;;;;0.30;0.30;;;25.00;99.90;;;;;;5071028;28;20272;-83
2021/08/01 11:09:34;;;;;;;0.30;0.30;;;24.80;99.90;;;;;;5069289;28;20271;-81
2021/08/01 11:12:18;;;;;;;0.50;0.50;;;24.70;99.90;;;;;;5072414;28;20219;-83
2021/08/01 11:14:49;;;;;;;0.30;0.30;;;24.90;99.90;;;;;;5057749;28;20177;-83
2021/08/01 11:17:20;;;;;;;0.47;0.47;;;25.10;99.90;;;;;;5061400;28;20187;-82
2021/08/01 11:19:46;;;;;;;0.37;0.37;;;25.20;99.90;;;;;;5076254;28;20188;-83
2021/08/01 11:22:40;;;;;;;0.30;0.30;;;25.20;99.90;;;;;;5053110;28;20212;-83
2021/08/01 11:25:25;;;;;;;0.93;0.63;;;25.30;99.90;;;;;;5076172;28;20691;-82
2021/08/01 11:28:09;;;;;;;0.20;0.20;;;25.50;99.90;;;;;;5046733;28;20188;-81
2021/08/01 11:30:53;;;;;;;0.73;0.73;;;25.70;99.90;;;;;;5052550;28;20625;-82
2021/08/01 11:33:31;;;;;;;0.40;0.40;;;25.90;99.90;;;;;;5054153;28;20208;-83
2021/08/01 11:36:18;;;;;;;0.53;0.43;;;26.30;99.90;;;;;;5071177;28;20181;-82
2021/08/01 11:38:52;;;;;;;0.70;0.70;;;26.40;99.90;;;;;;5053931;28;20185;-83
2021/08/01 11:41:27;;;;;;;0.57;0.47;;;26.40;99.90;;;;;;5052590;28;20176;-83
2021/08/01 11:44:12;;;;;;;0.60;0.60;;;26.10;99.90;;;;;;5053096;28;20187;-82
2021/08/01 11:46:54;;;;;;;0.40;0.37;;;26.20;99.90;;;;;;5063928;28;20169;-82
2021/08/01 11:49:45;;;;;;;0.60;0.40;;;26.20;99.90;;;;;;5069680;28;20264;-82
2021/08/01 11:52:13;;;;;;;0.40;0.40;;;26.20;99.90;;;;;;5067160;28;20208;-82
2021/08/01 11:54:39;;;;;;;0.20;0.20;;;26.20;99.90;;;;;;5067599;28;20226;-83
2021/08/01 11:57:08;;;;;;;0.53;0.50;;;26.50;99.90;;;;;;5054112;28;20173;-81
2021/08/01 11:59:34;;;;;;;0.50;0.50;;;26.60;99.90;;;;;;5070441;28;20255;-83
2021/08/01 12:02:01;;;;;;;0.30;0.30;;;26.50;99.90;;;;;;5053107;28;20693;-82
2021/08/01 12:04:27;;;;;;;0.97;0.57;;;26.60;99.90;;;;;;5070641;28;20279;-82
2021/08/01 12:06:55;;;;;;;0.23;0.23;;;26.80;99.90;;;;;;5070928;28;20192;-82
2021/08/01 12:09:26;;;;;;;0.17;0.17;;;27.00;99.90;;;;;;5054574;28;20185;-83
2021/08/01 12:11:56;;;;;;;0.20;0.20;;;27.30;99.90;;;;;;5070278;28;21195;-82
2021/08/01 12:14:27;;;;;;;0.40;0.40;;;27.40;99.90;;;;;;5053548;28;20188;-82
2021/08/01 12:16:57;;;;;;;0.27;0.27;;;27.10;99.90;;;;;;5070591;28;20184;-82
2021/08/01 12:19:25;;;;;;;0.40;0.40;;;27.00;99.90;;;;;;5054880;28;20189;-83
2021/08/01 12:21:57;;;;;;;0.30;0.30;;;27.00;99.90;;;;;;5052981;28;20201;-82
2021/08/01 12:24:41;;;;;;;0.20;0.20;;;26.90;99.90;;;;;;5051341;28;20192;-83
2021/08/01 12:27:15;;;;;;;0.60;0.33;;;27.10;99.90;;;;;;5067245;28;20189;-83
2021/08/01 12:29:42;;;;;;;0.20;0.20;;;27.10;99.90;;;;;;5055310;28;20184;-82
2021/08/01 12:32:24;;;;;;;0.23;0.23;;;26.80;99.90;;;;;;5064179;28;20234;-82
2021/08/01 12:34:59;;;;;;;0.30;0.30;;;26.70;99.90;;;;;;5053283;28;20180;-83
2021/08/01 12:37:24;;;;;;;1.00;0.30;;;26.80;99.90;;;;;;5070921;28;20694;-81
2021/08/01 12:39:51;;;;;;;0.20;0.20;;;26.90;99.90;;;;;;5053705;28;20185;-83
2021/08/01 12:42:19;;;;;;;0.20;0.20;;;26.60;99.90;;;;;;5053571;28;20208;-82
2021/08/01 12:45:03;;;;;;;0.40;0.40;;;26.70;99.90;;;;;;5072058;28;20235;-82
2021/08/01 12:47:30;;;;;;;0.20;0.20;;;26.40;99.90;;;;;;5070833;28;20183;-81
2021/08/01 12:49:56;;;;;;;0.20;0.20;;;26.60;99.90;;;;;;5051908;28;20317;-82
2021/08/01 12:52:25;;;;;;;0.33;0.33;;;26.30;99.90;;;;;;5050070;28;20716;-82
2021/08/01 12:54:53;;;;;;;0.33;0.33;;;26.20;99.90;;;;;;5066251;28;20181;-83